createdAt,value
2023-03-02T00:00:38.380Z,21.93
2023-03-02T00:03:04.875Z,22.21
2023-03-02T00:05:31.351Z,22.02
2023-03-02T00:07:57.759Z,21.77
2023-03-02T00:10:24.123Z,21.91
2023-03-02T00:12:50.495Z,22.22
2023-03-02T00:15:16.886Z,21.67
2023-03-02T00:17:43.262Z,22.10
2023-03-02T00:20:09.557Z,22.33
2023-03-02T00:22:35.996Z,22.39
2023-03-02T00:25:02.338Z,22.14
2023-03-02T00:27:28.680Z,22.15
2023-03-02T00:29:55.046Z,21.74
2023-03-02T00:32:21.372Z,22.02
2023-03-02T00:34:47.706Z,21.96
2023-03-02T00:37:14.039Z,22.23
2023-03-02T00:39:40.405Z,22.14
2023-03-02T00:42:06.717Z,22.08
2023-03-02T00:44:33.021Z,22.13
2023-03-02T00:46:59.373Z,22.08
2023-03-02T00:49:25.719Z,22.05
2023-03-02T00:51:52.065Z,22.26
2023-03-02T00:54:18.450Z,22.14
2023-03-02T00:56:44.793Z,22.08
2023-03-02T00:59:11.193Z,21.96
2023-03-02T01:01:37.613Z,22.02
2023-03-02T01:04:03.934Z,22.24
2023-03-02T01:06:30.658Z,22.16
2023-03-02T01:08:57.137Z,22.27
2023-03-02T01:11:23.449Z,21.89
2023-03-02T01:13:49.781Z,22.27
2023-03-02T01:16:16.218Z,22.00
2023-03-02T01:18:42.616Z,22.11
2023-03-02T01:21:08.995Z,21.84
2023-03-02T01:23:35.308Z,22.30
2023-03-02T01:26:01.691Z,21.92
2023-03-02T01:28:28.020Z,22.36
2023-03-02T01:30:54.363Z,22.12
2023-03-02T01:33:20.693Z,21.95
2023-03-02T01:35:47.041Z,22.09
2023-03-02T01:38:13.498Z,22.19
2023-03-02T01:40:39.847Z,22.13
2023-03-02T01:43:06.228Z,21.96
2023-03-02T01:45:32.618Z,22.35
2023-03-02T01:47:58.975Z,22.14
2023-03-02T01:50:25.287Z,21.93
2023-03-02T01:52:51.644Z,22.18
2023-03-02T01:55:18.014Z,22.10
2023-03-02T01:57:44.375Z,22.00
2023-03-02T02:00:10.741Z,22.35
2023-03-02T02:02:37.131Z,22.25
2023-03-02T02:05:03.613Z,22.03
2023-03-02T02:07:29.928Z,21.88
2023-03-02T02:09:56.282Z,22.19
2023-03-02T02:12:22.686Z,22.19
2023-03-02T02:14:48.999Z,22.18
2023-03-02T02:17:15.380Z,21.84
2023-03-02T02:19:41.734Z,22.13
2023-03-02T02:22:08.096Z,22.01
2023-03-02T02:24:34.412Z,22.19
2023-03-02T02:27:01.116Z,22.36
2023-03-02T02:29:27.551Z,22.30
2023-03-02T02:31:53.961Z,22.25
2023-03-02T02:34:20.371Z,21.93
2023-03-02T02:36:46.700Z,22.44
2023-03-02T02:39:13.011Z,22.03
2023-03-02T02:41:39.322Z,21.82
2023-03-02T02:44:05.670Z,22.08
2023-03-02T02:46:32.228Z,21.94
2023-03-02T02:48:58.752Z,22.02
2023-03-02T02:51:25.223Z,22.17
2023-03-02T02:53:51.549Z,21.85
2023-03-02T02:56:17.911Z,22.05
2023-03-02T02:58:44.275Z,22.10
2023-03-02T03:01:10.725Z,21.87
2023-03-02T03:03:37.146Z,22.36
2023-03-02T03:06:03.492Z,22.17
2023-03-02T03:08:29.851Z,22.03
2023-03-02T03:10:56.206Z,22.10
2023-03-02T03:13:22.549Z,22.24
2023-03-02T03:15:48.928Z,22.11
2023-03-02T03:18:15.317Z,22.39
2023-03-02T03:20:41.628Z,22.20
2023-03-02T03:23:08.062Z,22.27
2023-03-02T03:25:34.375Z,21.95
2023-03-02T03:28:00.780Z,21.95
2023-03-02T03:30:27.090Z,21.90
2023-03-02T03:32:53.553Z,22.30
2023-03-02T03:35:19.935Z,22.14
2023-03-02T03:37:46.339Z,22.15
2023-03-02T03:40:12.739Z,22.02
2023-03-02T03:42:39.063Z,22.33
2023-03-02T03:45:05.403Z,21.89
2023-03-02T03:47:31.742Z,22.19
2023-03-02T03:49:58.202Z,21.90
2023-03-02T03:52:24.540Z,21.99
2023-03-02T03:54:50.848Z,21.93
2023-03-02T03:57:17.209Z,22.06
2023-03-02T03:59:43.521Z,22.03
2023-03-02T04:02:10.072Z,22.20
2023-03-02T04:04:36.439Z,22.19
2023-03-02T04:07:02.771Z,22.08
2023-03-02T04:09:29.222Z,22.38
2023-03-02T04:11:55.544Z,22.25
2023-03-02T04:14:21.920Z,22.19
2023-03-02T04:16:48.274Z,22.17
2023-03-02T04:19:14.583Z,21.84
2023-03-02T04:21:40.955Z,21.92
2023-03-02T04:24:07.295Z,21.89
2023-03-02T04:26:33.873Z,22.35
2023-03-02T04:29:00.379Z,22.17
2023-03-02T04:31:26.829Z,21.93
2023-03-02T04:33:53.203Z,22.08
2023-03-02T04:36:19.528Z,22.33
2023-03-02T04:38:46.007Z,21.88
2023-03-02T04:41:12.321Z,22.40
2023-03-02T04:43:38.695Z,22.45
2023-03-02T04:46:05.058Z,22.17
2023-03-02T04:48:31.449Z,22.41
2023-03-02T04:50:57.903Z,22.30
2023-03-02T04:53:24.383Z,22.42
2023-03-02T04:55:50.756Z,22.43
2023-03-02T04:58:17.124Z,21.92
2023-03-02T05:00:43.504Z,22.39
2023-03-02T05:03:09.867Z,22.49
2023-03-02T05:05:36.202Z,22.13
2023-03-02T05:08:02.613Z,21.85
2023-03-02T05:10:28.975Z,22.15
2023-03-02T05:12:55.325Z,21.86
2023-03-02T05:15:21.664Z,22.33
2023-03-02T05:17:48.036Z,22.07
2023-03-02T05:20:14.407Z,22.17
2023-03-02T05:22:40.798Z,22.45
2023-03-02T05:25:07.182Z,22.16
2023-03-02T05:27:33.555Z,21.94
2023-03-02T05:29:59.922Z,22.47
2023-03-02T05:32:26.360Z,22.60
2023-03-02T05:34:52.769Z,22.17
2023-03-02T05:37:19.120Z,22.28
2023-03-02T05:39:45.435Z,22.03
2023-03-02T05:42:11.818Z,22.24
2023-03-02T05:44:38.141Z,22.14
2023-03-02T05:47:04.541Z,22.22
2023-03-02T05:49:30.894Z,21.93
2023-03-02T05:51:57.203Z,21.83
2023-03-02T05:54:23.516Z,22.25
2023-03-02T05:56:50.385Z,22.47
2023-03-02T05:59:16.851Z,22.04
2023-03-02T06:01:43.232Z,22.03
2023-03-02T06:04:09.643Z,22.24
2023-03-02T06:06:36.319Z,22.54
2023-03-02T06:09:02.872Z,21.86
2023-03-02T06:11:29.240Z,22.35
2023-03-02T06:13:55.714Z,22.24
2023-03-02T06:16:22.062Z,22.01
2023-03-02T06:18:48.485Z,22.48
2023-03-02T06:21:14.820Z,22.13
2023-03-02T06:23:41.196Z,22.56
2023-03-02T06:26:07.533Z,22.25
2023-03-02T06:28:46.292Z,22.36
2023-03-02T06:31:18.769Z,22.49
2023-03-02T06:33:45.182Z,22.10
2023-03-02T06:36:11.580Z,22.18
2023-03-02T06:38:37.955Z,22.24
2023-03-02T06:41:04.266Z,22.07
2023-03-02T06:43:30.622Z,21.89
2023-03-02T06:45:57.019Z,22.28
2023-03-02T06:48:23.375Z,22.06
2023-03-02T06:50:49.687Z,21.89
2023-03-02T06:53:16.162Z,22.18
2023-03-02T06:55:42.521Z,22.22
2023-03-02T06:58:08.877Z,22.36
2023-03-02T07:00:35.209Z,22.56
2023-03-02T07:03:01.615Z,22.46
2023-03-02T07:05:27.979Z,22.87
2023-03-02T07:07:54.336Z,22.68
2023-03-02T07:10:20.659Z,23.11
2023-03-02T07:12:47.013Z,23.21
2023-03-02T07:15:13.326Z,23.67
2023-03-02T07:17:39.674Z,23.42
2023-03-02T07:20:05.999Z,23.34
2023-03-02T07:22:32.375Z,23.60
2023-03-02T07:24:58.732Z,23.30
2023-03-02T07:27:25.107Z,23.12
2023-03-02T07:29:51.451Z,23.25
2023-03-02T07:32:17.866Z,23.26
2023-03-02T07:34:44.231Z,23.01
2023-03-02T07:37:10.540Z,22.82
2023-03-02T07:39:36.886Z,22.78
2023-03-02T07:42:03.250Z,22.68
2023-03-02T07:44:29.654Z,22.88
2023-03-02T07:46:56.119Z,22.67
2023-03-02T07:49:22.499Z,22.55
2023-03-02T07:51:48.884Z,22.45
2023-03-02T07:54:15.255Z,22.67
2023-03-02T07:56:41.588Z,22.31
2023-03-02T07:59:07.895Z,22.46
2023-03-02T08:01:34.588Z,22.66
2023-03-02T08:04:01.053Z,22.35
2023-03-02T08:06:27.401Z,22.64
2023-03-02T08:08:53.832Z,22.33
2023-03-02T08:11:20.176Z,22.51
2023-03-02T08:13:46.545Z,22.44
2023-03-02T08:16:13.028Z,22.34
2023-03-02T08:18:39.404Z,22.42
2023-03-02T08:21:05.861Z,22.43
2023-03-02T08:23:32.265Z,22.24
2023-03-02T08:25:58.614Z,22.45
2023-03-02T08:28:24.991Z,22.39
2023-03-02T08:30:51.329Z,22.10
2023-03-02T08:33:17.677Z,22.26
2023-03-02T08:35:44.163Z,22.15
2023-03-02T08:38:10.524Z,22.14
2023-03-02T08:40:36.913Z,22.70
2023-03-02T08:43:03.297Z,22.11
2023-03-02T08:45:29.666Z,22.31
2023-03-02T08:47:56.060Z,22.29
2023-03-02T08:50:22.374Z,22.46
2023-03-02T08:52:48.737Z,23.08
2023-03-02T08:55:15.161Z,22.79
2023-03-02T08:57:41.524Z,23.50
2023-03-02T09:00:07.839Z,23.54
2023-03-02T09:02:34.223Z,23.50
2023-03-02T09:05:00.596Z,23.00
2023-03-02T09:07:26.978Z,22.95
2023-03-02T09:09:53.452Z,23.00
2023-03-02T09:12:19.875Z,22.50
2023-03-02T09:14:46.296Z,23.50
2023-03-02T09:17:12.880Z,23.89
2023-03-02T09:19:39.331Z,24.37
2023-03-02T09:22:05.688Z,23.96
2023-03-02T09:24:32.095Z,23.78
2023-03-02T09:26:58.476Z,24.01
2023-03-02T09:29:24.893Z,25.00
2023-03-02T09:31:51.321Z,24.89
2023-03-02T09:34:17.693Z,24.74
2023-03-02T09:36:44.001Z,24.12
2023-03-02T09:39:10.379Z,24.90
2023-03-02T09:41:36.704Z,26.01
2023-03-02T09:44:03.024Z,25.77
2023-03-02T09:46:29.403Z,26.64
2023-03-02T09:48:55.784Z,26.71
2023-03-02T09:51:22.182Z,26.44
2023-03-02T09:53:48.510Z,26.21
2023-03-02T09:56:14.865Z,27.45
2023-03-02T09:58:41.176Z,26.81
2023-03-02T10:01:07.530Z,26.18
2023-03-02T10:03:34.013Z,25.81
2023-03-02T10:06:00.385Z,25.45
2023-03-02T10:08:26.701Z,24.45
2023-03-02T10:10:53.049Z,24.48
2023-03-02T10:13:19.432Z,24.42
2023-03-02T10:15:45.850Z,24.21
2023-03-02T10:18:12.212Z,24.06
2023-03-02T10:20:38.547Z,23.92
2023-03-02T10:23:04.981Z,23.84
2023-03-02T10:25:31.325Z,24.04
2023-03-02T10:27:57.696Z,24.09
2023-03-02T10:30:24.081Z,24.28
2023-03-02T10:32:50.458Z,23.61
2023-03-02T10:35:16.811Z,23.90
2023-03-02T10:37:43.286Z,23.90
2023-03-02T10:40:09.727Z,23.71
2023-03-02T10:42:36.130Z,23.94
2023-03-02T10:45:02.492Z,23.91
2023-03-02T10:47:28.990Z,23.22
2023-03-02T10:49:55.362Z,23.61
2023-03-02T10:52:21.660Z,23.89
2023-03-02T10:54:48.027Z,24.47
2023-03-02T10:57:14.389Z,24.32
2023-03-02T10:59:40.732Z,24.37
2023-03-02T11:02:07.050Z,25.23
2023-03-02T11:04:33.466Z,24.67
2023-03-02T11:06:59.922Z,24.93
2023-03-02T11:11:53.609Z,24.96
2023-03-02T11:14:20.052Z,24.44
2023-03-02T11:16:46.393Z,24.21
2023-03-02T11:19:12.777Z,24.93
2023-03-02T11:21:39.150Z,25.05
2023-03-02T11:24:05.445Z,24.74
2023-03-02T11:26:31.760Z,25.52
2023-03-02T11:28:58.151Z,25.54
2023-03-02T11:31:24.537Z,24.81
2023-03-02T11:33:50.937Z,25.03
2023-03-02T11:36:17.493Z,24.76
2023-03-02T11:38:43.832Z,24.71
2023-03-02T11:41:10.181Z,24.36
2023-03-02T11:43:36.541Z,24.44
2023-03-02T11:46:05.090Z,24.74
2023-03-02T11:48:35.016Z,24.69
2023-03-02T11:51:01.392Z,24.44
2023-03-02T11:53:27.912Z,25.13
2023-03-02T11:55:54.290Z,25.03
2023-03-02T11:58:20.641Z,25.30
2023-03-02T12:00:47.011Z,25.21
2023-03-02T12:03:13.348Z,25.01
2023-03-02T12:05:39.732Z,24.48
2023-03-02T12:08:06.167Z,24.57
2023-03-02T12:10:32.505Z,24.20
2023-03-02T12:12:58.819Z,24.05
2023-03-02T12:15:25.266Z,23.65
2023-03-02T12:17:51.618Z,23.75
2023-03-02T12:20:17.986Z,23.83
2023-03-02T12:22:44.296Z,23.58
2023-03-02T12:25:10.690Z,23.17
2023-03-02T12:27:37.040Z,23.30
2023-03-02T12:30:03.531Z,23.44
2023-03-02T12:32:29.993Z,23.15
2023-03-02T12:34:56.355Z,23.51
2023-03-02T12:37:22.703Z,23.20
2023-03-02T12:39:49.098Z,23.65
2023-03-02T12:42:15.462Z,23.29
2023-03-02T12:44:41.800Z,23.28
2023-03-02T12:47:08.382Z,23.11
2023-03-02T12:49:34.724Z,23.21
2023-03-02T12:52:01.194Z,23.50
2023-03-02T12:54:27.646Z,23.46
2023-03-02T12:56:54.015Z,23.10
2023-03-02T12:59:20.340Z,22.95
2023-03-02T13:01:46.670Z,22.96
2023-03-02T13:04:13.114Z,23.07
2023-03-02T13:06:39.535Z,23.12
2023-03-02T13:09:05.893Z,23.16
2023-03-02T13:11:32.289Z,23.29
2023-03-02T13:13:58.643Z,23.42
2023-03-02T13:16:25.086Z,23.03
2023-03-02T13:18:51.506Z,23.28
2023-03-02T13:21:17.864Z,23.29
2023-03-02T13:23:44.193Z,23.17
2023-03-02T13:26:10.487Z,23.59
2023-03-02T13:28:36.807Z,23.03
2023-03-02T13:31:03.280Z,23.33
2023-03-02T13:33:29.684Z,23.60
2023-03-02T13:35:56.062Z,23.20
2023-03-02T13:38:22.380Z,23.35
2023-03-02T13:40:48.748Z,23.24
2023-03-02T13:43:15.168Z,23.29
2023-03-02T13:45:41.527Z,23.13
2023-03-02T13:48:07.854Z,23.32
2023-03-02T13:50:34.365Z,23.48
2023-03-02T13:53:00.690Z,23.43
2023-03-02T13:55:26.991Z,23.39
2023-03-02T13:57:53.331Z,23.58
2023-03-02T14:00:19.669Z,23.58
2023-03-02T14:02:45.980Z,23.62
2023-03-02T14:05:12.370Z,23.33
2023-03-02T14:07:38.732Z,23.27
2023-03-02T14:10:05.063Z,23.24
2023-03-02T14:12:31.549Z,23.22
2023-03-02T14:14:57.941Z,23.51
2023-03-02T14:17:24.273Z,22.98
2023-03-02T14:19:50.614Z,23.44
2023-03-02T14:22:16.944Z,23.22
2023-03-02T14:24:43.292Z,23.30
2023-03-02T14:27:09.653Z,23.03
2023-03-02T14:29:36.032Z,23.22
2023-03-02T14:32:02.425Z,23.37
2023-03-02T14:34:28.795Z,23.15
2023-03-02T14:36:55.197Z,23.39
2023-03-02T14:39:21.551Z,23.29
2023-03-02T14:41:53.652Z,23.56
2023-03-02T14:44:20.693Z,22.92
2023-03-02T14:46:47.019Z,23.30
2023-03-02T14:49:13.335Z,23.40
2023-03-02T14:51:39.691Z,23.41
2023-03-02T14:54:06.022Z,23.47
2023-03-02T14:56:32.433Z,23.56
2023-03-02T14:58:58.776Z,23.50
2023-03-02T15:01:25.112Z,23.13
2023-03-02T15:03:51.463Z,23.43
2023-03-02T15:06:17.883Z,23.57
2023-03-02T15:08:44.235Z,23.39
2023-03-02T15:11:10.556Z,23.34
2023-03-02T15:13:36.919Z,23.72
2023-03-02T15:16:03.419Z,23.68
2023-03-02T15:18:29.806Z,23.24
2023-03-02T15:20:56.247Z,23.47
2023-03-02T15:23:22.635Z,23.73
2023-03-02T15:25:48.975Z,23.54
2023-03-02T15:28:15.338Z,23.43
2023-03-02T15:30:41.711Z,23.50
2023-03-02T15:33:08.034Z,23.42
2023-03-02T15:35:34.356Z,23.51
2023-03-02T15:38:00.713Z,23.53
2023-03-02T15:40:27.048Z,23.07
2023-03-02T15:42:53.403Z,23.02
2023-03-02T15:45:19.775Z,23.47
2023-03-02T15:47:46.108Z,23.35
2023-03-02T15:50:12.447Z,23.53
2023-03-02T15:52:38.835Z,23.19
2023-03-02T15:55:05.166Z,23.43
2023-03-02T15:57:31.460Z,23.47
2023-03-02T15:59:57.802Z,23.40
2023-03-02T16:02:24.132Z,23.35
2023-03-02T16:04:50.470Z,23.53
2023-03-02T16:07:16.893Z,23.36
2023-03-02T16:09:43.243Z,23.38
2023-03-02T16:12:09.548Z,23.86
2023-03-02T16:14:35.879Z,23.62
2023-03-02T16:17:02.215Z,23.78
2023-03-02T16:19:28.569Z,23.85
2023-03-02T16:21:54.921Z,24.10
2023-03-02T16:24:21.346Z,24.64
2023-03-02T16:26:47.704Z,24.96
2023-03-02T16:29:14.036Z,25.17
2023-03-02T16:31:40.437Z,24.18
2023-03-02T16:34:06.819Z,24.23
2023-03-02T16:36:33.135Z,24.32
2023-03-02T16:38:59.439Z,24.10
2023-03-02T16:41:25.803Z,24.14
2023-03-02T16:43:52.175Z,24.16
2023-03-02T16:46:18.629Z,24.19
2023-03-02T16:48:45.024Z,24.33
2023-03-02T16:51:11.413Z,24.13
2023-03-02T16:53:37.744Z,24.44
2023-03-02T16:56:04.091Z,24.04
2023-03-02T16:58:30.453Z,24.25
2023-03-02T17:00:57.000Z,24.50
2023-03-02T17:03:23.401Z,24.09
2023-03-02T17:05:49.702Z,25.81
2023-03-02T17:08:16.044Z,25.81
2023-03-02T17:10:42.411Z,26.72
2023-03-02T17:13:08.720Z,26.38
2023-03-02T17:15:35.087Z,25.79
2023-03-02T17:18:01.472Z,25.87
2023-03-02T17:20:27.837Z,26.16
2023-03-02T17:22:54.311Z,27.32
2023-03-02T17:25:20.639Z,29.29
2023-03-02T17:27:46.995Z,28.65
2023-03-02T17:30:13.324Z,27.63
2023-03-02T17:32:39.673Z,26.55
2023-03-02T17:35:06.014Z,26.36
2023-03-02T17:37:32.358Z,26.45
2023-03-02T17:39:58.734Z,26.24
2023-03-02T17:42:25.088Z,26.15
2023-03-02T17:44:51.380Z,25.99
2023-03-02T17:47:17.741Z,26.21
2023-03-02T17:49:44.139Z,25.50
2023-03-02T17:52:10.460Z,25.14
2023-03-02T17:54:36.767Z,24.88
2023-03-02T17:57:03.144Z,24.88
2023-03-02T17:59:29.490Z,25.29
2023-03-02T18:01:55.837Z,25.44
2023-03-02T18:04:22.347Z,25.37
2023-03-02T18:06:48.712Z,25.01
2023-03-02T18:09:15.009Z,24.96
2023-03-02T18:11:41.374Z,24.84
2023-03-02T18:14:07.717Z,24.64
2023-03-02T18:16:34.118Z,24.75
2023-03-02T18:19:00.465Z,24.74
2023-03-02T18:21:26.824Z,24.96
2023-03-02T18:23:53.150Z,25.66
2023-03-02T18:26:19.505Z,25.93
2023-03-02T18:28:45.895Z,26.58
2023-03-02T18:31:12.261Z,26.60
2023-03-02T18:33:38.606Z,26.61
2023-03-02T18:36:04.958Z,26.75
2023-03-02T18:38:31.276Z,26.40
2023-03-02T18:40:57.640Z,26.48
2023-03-02T18:43:24.025Z,26.23
2023-03-02T18:45:50.361Z,26.00
2023-03-02T18:48:16.718Z,25.94
2023-03-02T18:50:43.072Z,26.02
2023-03-02T18:53:11.800Z,25.79
2023-03-02T18:55:39.106Z,25.87
2023-03-02T18:58:05.627Z,25.62
2023-03-02T19:00:32.082Z,25.56
2023-03-02T19:02:58.433Z,25.83
2023-03-02T19:05:24.796Z,25.66
2023-03-02T19:07:51.158Z,25.67
2023-03-02T19:10:17.504Z,25.41
2023-03-02T19:12:44.255Z,25.66
2023-03-02T19:15:10.674Z,25.66
2023-03-02T19:17:37.004Z,25.68
2023-03-02T19:20:03.323Z,28.54
2023-03-02T19:22:29.678Z,26.26
2023-03-02T19:24:56.060Z,26.21
2023-03-02T19:27:22.417Z,26.51
2023-03-02T19:29:48.826Z,26.09
2023-03-02T19:32:15.190Z,26.24
2023-03-02T19:34:41.525Z,26.21
2023-03-02T19:37:07.916Z,25.63
2023-03-02T19:39:34.257Z,25.82
2023-03-02T19:42:00.581Z,25.62
2023-03-02T19:44:26.906Z,25.69
2023-03-02T19:46:53.217Z,25.37
2023-03-02T19:49:19.544Z,25.16
2023-03-02T19:51:45.883Z,25.53
2023-03-02T19:54:12.325Z,25.02
2023-03-02T19:56:38.688Z,24.92
2023-03-02T19:59:05.049Z,25.32
2023-03-02T20:01:31.431Z,25.21
2023-03-02T20:03:57.830Z,25.16
2023-03-02T20:06:24.245Z,25.12
2023-03-02T20:08:50.598Z,24.77
2023-03-02T20:11:17.067Z,24.93
2023-03-02T20:13:43.534Z,24.90
2023-03-02T20:16:09.853Z,25.29
2023-03-02T20:18:36.170Z,24.80
2023-03-02T20:21:02.475Z,25.17
2023-03-02T20:23:28.927Z,24.85
2023-03-02T20:25:55.302Z,24.73
2023-03-02T20:28:21.734Z,24.93
2023-03-02T20:30:48.233Z,24.70
2023-03-02T20:33:14.627Z,25.01
2023-03-02T20:35:41.165Z,25.14
2023-03-02T20:38:07.662Z,25.17
2023-03-02T20:40:34.040Z,25.00
2023-03-02T20:43:00.395Z,24.83
2023-03-02T20:45:26.787Z,24.60
2023-03-02T20:47:53.157Z,24.77
2023-03-02T20:50:19.508Z,24.87
2023-03-02T20:52:45.940Z,24.60
2023-03-02T20:55:12.293Z,24.92
2023-03-02T20:57:38.616Z,24.61
2023-03-02T21:00:04.968Z,25.00
2023-03-02T21:02:31.551Z,24.63
2023-03-02T21:04:57.936Z,24.84
2023-03-02T21:07:24.449Z,24.80
2023-03-02T21:09:50.797Z,24.56
2023-03-02T21:12:17.194Z,25.01
2023-03-02T21:14:43.702Z,24.80
2023-03-02T21:17:10.406Z,24.90
2023-03-02T21:19:36.739Z,24.67
2023-03-02T21:22:03.145Z,24.71
2023-03-02T21:24:29.494Z,24.63
2023-03-02T21:26:55.846Z,24.50
2023-03-02T21:29:22.179Z,24.98
2023-03-02T21:31:48.566Z,25.07
2023-03-02T21:34:14.920Z,25.09
2023-03-02T21:36:41.294Z,24.88
2023-03-02T21:39:07.663Z,24.56
2023-03-02T21:41:33.987Z,24.94
2023-03-02T21:44:00.326Z,24.61
2023-03-02T21:46:27.062Z,24.69
2023-03-02T21:48:53.421Z,24.88
2023-03-02T21:51:19.816Z,25.13
2023-03-02T21:53:46.264Z,24.63
2023-03-02T21:56:12.584Z,24.64
2023-03-02T21:58:38.970Z,24.92
2023-03-02T22:01:05.337Z,24.71
2023-03-02T22:03:31.721Z,24.73
2023-03-02T22:05:58.186Z,24.81
2023-03-02T22:08:24.544Z,24.57
2023-03-02T22:10:50.882Z,24.77
2023-03-02T22:13:17.290Z,24.60
2023-03-02T22:15:43.753Z,24.58
2023-03-02T22:18:10.079Z,24.64
2023-03-02T22:20:36.765Z,24.61
2023-03-02T22:23:03.528Z,25.11
2023-03-02T22:25:29.889Z,24.65
2023-03-02T22:27:56.252Z,25.01
2023-03-02T22:30:22.603Z,25.04
2023-03-02T22:32:48.954Z,24.64
2023-03-02T22:35:15.326Z,24.74
2023-03-02T22:37:41.689Z,24.98
2023-03-02T22:40:08.020Z,25.20
2023-03-02T22:42:34.379Z,24.88
2023-03-02T22:45:00.720Z,24.78
2023-03-02T22:47:27.110Z,25.04
2023-03-02T22:49:53.464Z,24.96
2023-03-02T22:52:19.823Z,25.05
2023-03-02T22:54:46.238Z,24.68
2023-03-02T22:57:12.572Z,24.78
2023-03-02T22:59:38.930Z,25.03
2023-03-02T23:02:05.368Z,25.01
2023-03-02T23:04:31.712Z,24.73
2023-03-02T23:06:58.100Z,24.99
2023-03-02T23:09:24.440Z,24.96
2023-03-02T23:11:50.872Z,25.04
2023-03-02T23:14:17.214Z,24.76
2023-03-02T23:16:43.629Z,24.92
2023-03-02T23:19:10.069Z,24.78
2023-03-02T23:21:36.424Z,24.95
2023-03-02T23:24:02.772Z,24.80
2023-03-02T23:26:29.152Z,24.96
2023-03-02T23:28:55.483Z,24.90
2023-03-02T23:31:21.880Z,24.82
2023-03-02T23:33:48.249Z,24.93
2023-03-02T23:36:14.579Z,25.02
2023-03-02T23:38:40.949Z,24.79
2023-03-02T23:41:07.402Z,25.16
2023-03-02T23:43:33.772Z,24.98
2023-03-02T23:46:00.255Z,25.25
2023-03-02T23:48:26.695Z,25.09
2023-03-02T23:50:52.996Z,25.22
2023-03-02T23:53:19.302Z,25.04
2023-03-02T23:55:45.683Z,25.20
2023-03-02T23:58:12.079Z,24.69
